Time;durP1;ratioP1;P1;durP2;ratioP2;P2;SDS_P1;SDS_P2;PMS_P1;PMS_P2;Temp;Humidity;BMP_temperature;BMP_pressure;BME280_temperature;BME280_humidity;BME280_pressure;Samples;Min_cycle;Max_cycle;Signal;HPM_P1;HPM_P2
2023/09/19 02:51:04;;;;;;;2.88;1.20;;;;;;;19.46;84.69;99565.47;6193187;22;20021;-90
2023/09/19 02:53:32;;;;;;;5.07;1.48;;;;;;;19.48;84.63;99571.44;6102658;23;20021;-89
2023/09/19 02:55:59;;;;;;;1.98;1.30;;;;;;;19.51;84.63;99565.69;6130715;23;20318;-88
2023/09/19 02:58:27;;;;;;;4.15;1.40;;;;;;;19.52;84.38;99563.81;6156361;23;20024;-90
2023/09/19 03:00:55;;;;;;;5.97;1.58;;;;;;;19.52;84.45;99570.03;6155614;23;20027;-90
2023/09/19 03:03:23;;;;;;;2.95;1.20;;;;;;;19.52;84.53;99582.69;6181402;23;20395;-90
2023/09/19 03:05:53;;;;;;;3.92;1.42;;;;;;;19.52;84.52;99574.59;6155648;23;20039;-89
2023/09/19 03:08:22;;;;;;;4.80;1.35;;;;;;;19.56;84.27;99575.00;6132077;23;20055;-92
2023/09/19 03:10:49;;;;;;;2.08;1.08;;;;;;;19.55;84.21;99576.06;6155719;23;20013;-90
2023/09/19 03:13:16;;;;;;;3.42;1.30;;;;;;;19.57;84.29;99582.09;6129601;23;20043;-89
2023/09/19 03:15:46;;;;;;;4.15;1.40;;;;;;;19.55;84.33;99581.44;6155527;23;20027;-90
2023/09/19 03:18:14;;;;;;;3.38;1.60;;;;;;;19.56;84.40;99583.09;6155089;23;20091;-91
2023/09/19 03:20:41;;;;;;;1.83;1.38;;;;;;;19.57;84.40;99592.84;6119728;23;20028;-90
2023/09/19 03:23:08;;;;;;;4.25;1.40;;;;;;;19.55;84.15;99590.34;6127016;23;20023;-89
2023/09/19 03:25:35;;;;;;;4.22;1.27;;;;;;;19.58;84.19;99598.03;6177845;23;20492;-89
2023/09/19 03:28:07;;;;;;;1.77;1.45;;;;;;;19.55;83.52;99600.28;6177506;23;20597;-90
2023/09/19 03:30:35;;;;;;;3.58;1.30;;;;;;;19.55;83.72;99601.13;6179120;23;20472;-89
2023/09/19 03:33:04;;;;;;;2.60;1.60;;;;;;;19.56;83.94;99596.56;6153005;23;20031;-89
2023/09/19 03:35:32;;;;;;;2.08;1.30;;;;;;;19.55;83.92;99589.53;6177384;23;20023;-89
2023/09/19 03:38:00;;;;;;;2.47;1.58;;;;;;;19.55;84.01;99598.44;6151752;23;20035;-90
2023/09/19 03:40:27;;;;;;;2.63;1.45;;;;;;;19.49;83.40;99602.75;6154986;23;20028;-89
2023/09/19 03:42:54;;;;;;;2.88;1.95;;;;;;;19.50;83.94;99600.88;6154392;23;20032;-90
2023/09/19 03:45:21;;;;;;;5.72;1.67;;;;;;;19.54;84.06;99602.16;6154614;23;20025;-89
2023/09/19 03:47:52;;;;;;;4.13;1.67;;;;;;;19.51;84.08;99597.16;6180391;23;20091;-89
2023/09/19 03:50:21;;;;;;;6.05;2.03;;;;;;;19.53;83.95;99592.41;6155716;23;20079;-89
2023/09/19 03:52:49;;;;;;;1.80;1.30;;;;;;;19.53;84.15;99605.88;6154953;23;20109;-89
2023/09/19 03:55:17;;;;;;;3.72;2.00;;;;;;;19.49;83.99;99602.75;6156072;23;20033;-89
2023/09/19 03:57:50;;;;;;;2.60;1.40;;;;;;;19.47;83.71;99618.28;6153934;23;20017;-89
2023/09/19 04:00:21;;;;;;;2.42;1.40;;;;;;;19.51;83.36;99608.78;6176322;23;20025;-90
2023/09/19 04:02:48;;;;;;;4.65;1.60;;;;;;;19.48;83.86;99613.72;6179330;23;20017;-89
2023/09/19 04:05:16;;;;;;;3.47;1.45;;;;;;;19.50;83.99;99622.44;6154399;23;20033;-90
2023/09/19 04:07:44;;;;;;;6.40;1.65;;;;;;;19.46;84.14;99619.31;6203067;23;20039;-90
2023/09/19 04:10:11;;;;;;;1.83;1.52;;;;;;;19.43;84.15;99617.00;6154974;23;20081;-89
2023/09/19 04:12:38;;;;;;;5.50;1.60;;;;;;;19.44;84.17;99616.00;6153205;23;20016;-89
2023/09/19 04:15:05;;;;;;;6.57;2.15;;;;;;;19.44;85.13;99616.00;6153211;23;20103;-90
2023/09/19 04:17:35;;;;;;;2.33;1.63;;;;;;;19.44;84.94;99620.56;6155241;23;20016;-85
2023/09/19 04:20:07;;;;;;;2.63;1.60;;;;;;;19.42;84.94;99625.28;6154029;23;20526;-85
2023/09/19 04:22:34;;;;;;;2.33;1.67;;;;;;;19.38;84.61;99630.22;6180233;23;20424;-86
2023/09/19 04:25:02;;;;;;;3.72;2.30;;;;;;;19.39;84.88;99626.53;6153781;23;20511;-85
2023/09/19 04:27:29;;;;;;;3.53;1.80;;;;;;;19.38;84.45;99629.41;6152687;23;20091;-85
2023/09/19 04:29:58;;;;;;;3.53;1.55;;;;;;;19.36;84.51;99631.44;6178767;23;20128;-86
2023/09/19 04:32:29;;;;;;;7.05;2.35;;;;;;;19.36;84.58;99636.84;6154938;23;20024;-89
2023/09/19 04:34:59;;;;;;;4.20;1.95;;;;;;;19.35;84.83;99637.88;6177366;23;20100;-89
2023/09/19 04:37:26;;;;;;;3.33;1.58;;;;;;;19.33;84.81;99635.38;6204033;23;20039;-88
2023/09/19 04:39:54;;;;;;;4.57;1.80;;;;;;;19.31;84.81;99637.47;6178899;23;20704;-89
2023/09/19 04:42:21;;;;;;;4.95;1.92;;;;;;;19.28;84.92;99636.00;6178166;23;20029;-89
2023/09/19 04:44:49;;;;;;;7.70;2.00;;;;;;;19.25;84.65;99640.91;6178326;23;20085;-89
2023/09/19 04:47:16;;;;;;;4.72;1.80;;;;;;;19.24;84.52;99644.66;6178613;23;20099;-89
2023/09/19 04:49:43;;;;;;;3.20;1.73;;;;;;;19.20;84.28;99643.38;6203306;23;20088;-89
2023/09/19 04:52:10;;;;;;;2.88;1.98;;;;;;;19.19;84.27;99650.63;6179406;23;20478;-88
2023/09/19 04:54:37;;;;;;;5.75;1.70;;;;;;;19.16;84.35;99648.31;6155027;23;20021;-88
2023/09/19 04:57:05;;;;;;;4.05;1.60;;;;;;;19.14;84.24;99658.44;6151153;23;20024;-89
2023/09/19 04:59:32;;;;;;;4.10;2.00;;;;;;;19.11;84.11;99661.53;6203504;23;20031;-89
2023/09/19 05:01:59;;;;;;;2.78;1.88;;;;;;;19.08;83.99;99664.59;6179178;23;20446;-89
2023/09/19 05:04:26;;;;;;;4.78;1.80;;;;;;;19.04;84.52;99666.03;6177628;23;20029;-89
2023/09/19 05:06:53;;;;;;;2.58;1.60;;;;;;;19.04;84.66;99664.16;6153325;23;20078;-88
2023/09/19 05:09:20;;;;;;;2.17;1.60;;;;;;;19.06;84.71;99667.50;6154165;23;20013;-89
2023/09/19 05:11:48;;;;;;;3.25;2.10;;;;;;;19.09;84.76;99677.03;6178175;23;20024;-88
2023/09/19 05:14:14;;;;;;;3.90;2.00;;;;;;;19.09;85.33;99669.78;6152082;23;20102;-89
2023/09/19 05:16:41;;;;;;;5.93;2.15;;;;;;;19.09;85.40;99674.34;6179553;23;20071;-88
2023/09/19 05:19:11;;;;;;;2.70;1.67;;;;;;;19.10;85.60;99676.00;6129431;23;20020;-88
2023/09/19 05:21:41;;;;;;;5.38;2.00;;;;;;;19.10;85.45;99676.00;6178451;23;20063;-88
2023/09/19 05:24:08;;;;;;;5.47;2.22;;;;;;;19.12;85.53;99673.13;6154004;23;20017;-88
2023/09/19 05:26:37;;;;;;;4.68;2.00;;;;;;;19.12;85.69;99673.13;6203352;23;20031;-89
2023/09/19 05:29:05;;;;;;;4.40;1.83;;;;;;;19.15;85.84;99681.63;6154214;23;20023;-88
2023/09/19 05:31:31;;;;;;;4.93;2.03;;;;;;;19.16;85.65;99683.31;6153082;23;20032;-88
2023/09/19 05:34:00;;;;;;;2.70;1.70;;;;;;;19.17;85.62;99678.75;6177148;23;20032;-88
2023/09/19 05:36:29;;;;;;;2.88;2.10;;;;;;;19.16;85.54;99683.31;6179635;23;20051;-88
2023/09/19 05:38:56;;;;;;;5.68;2.38;;;;;;;19.15;85.93;99684.31;6153052;23;20024;-89
2023/09/19 05:41:23;;;;;;;6.22;2.83;;;;;;;19.18;85.49;99691.19;6153052;23;20020;-89
2023/09/19 05:43:50;;;;;;;2.90;2.05;;;;;;;19.19;85.45;99704.44;6177569;23;20025;-89
2023/09/19 05:46:17;;;;;;;5.28;2.10;;;;;;;19.21;85.22;99705.09;6178995;23;20028;-89
2023/09/19 05:48:44;;;;;;;6.85;2.10;;;;;;;19.21;85.51;99707.78;6203573;23;20051;-89
2023/09/19 05:51:11;;;;;;;5.22;2.53;;;;;;;19.23;85.32;99708.44;6177458;23;20479;-89
2023/09/19 05:53:38;;;;;;;5.40;2.22;;;;;;;19.23;84.64;99707.56;6154723;23;20051;-89
2023/09/19 05:56:05;;;;;;;5.28;2.10;;;;;;;19.24;84.52;99722.72;6152912;23;20078;-89
2023/09/19 05:58:32;;;;;;;3.72;1.65;;;;;;;19.23;84.44;99721.88;6152011;23;20032;-88
2023/09/19 06:00:59;;;;;;;2.88;2.10;;;;;;;19.24;84.28;99722.72;6202928;23;20441;-89
2023/09/19 06:03:26;;;;;;;3.80;2.50;;;;;;;19.25;84.41;99724.38;6177801;23;20025;-90
2023/09/19 06:05:57;;;;;;;8.88;2.30;;;;;;;19.23;84.29;99716.50;6179169;23;20445;-89
2023/09/19 06:08:23;;;;;;;4.82;2.15;;;;;;;19.26;83.92;99720.66;6177280;23;20074;-88
2023/09/19 06:10:52;;;;;;;3.17;1.88;;;;;;;19.28;83.99;99715.91;6153866;23;20016;-89
2023/09/19 06:13:19;;;;;;;3.33;1.92;;;;;;;19.26;84.06;99718.81;6202580;23;20029;-89
2023/09/19 06:15:47;;;;;;;5.15;2.65;;;;;;;19.31;83.73;99726.31;6202886;23;20075;-89
2023/09/19 06:18:19;;;;;;;3.38;1.90;;;;;;;19.29;83.20;99721.09;6202612;23;20100;-89
2023/09/19 06:20:50;;;;;;;4.78;2.10;;;;;;;19.30;82.79;99727.31;6204071;23;20364;-88
2023/09/19 06:23:19;;;;;;;5.43;2.42;;;;;;;19.30;83.05;99730.81;6154157;23;20025;-88
2023/09/19 06:25:46;;;;;;;6.05;2.03;;;;;;;19.32;82.70;99732.50;6177911;23;20027;-89
2023/09/19 06:28:14;;;;;;;3.85;1.60;;;;;;;19.34;82.77;99731.28;6177789;23;20027;-88
2023/09/19 06:30:41;;;;;;;5.13;2.05;;;;;;;19.36;81.87;99741.84;6154197;23;20092;-89
2023/09/19 06:33:08;;;;;;;6.10;1.98;;;;;;;19.39;82.00;99744.16;6202618;23;20353;-88
2023/09/19 06:35:35;;;;;;;5.85;1.92;;;;;;;19.35;81.43;99745.56;6178403;23;20021;-89
2023/09/19 06:38:02;;;;;;;6.35;2.10;;;;;;;19.37;81.28;99746.22;6177536;23;20095;-89
2023/09/19 06:40:30;;;;;;;6.75;1.95;;;;;;;19.32;80.99;99754.06;6152835;23;20107;-88
2023/09/19 06:42:57;;;;;;;8.40;2.10;;;;;;;19.27;80.19;99744.69;6202567;23;20566;-88
2023/09/19 06:45:26;;;;;;;4.43;1.88;;;;;;;19.32;80.44;99748.66;6202934;23;20083;-88
2023/09/19 06:47:57;;;;;;;5.47;2.10;;;;;;;19.36;80.46;99752.63;6202682;23;20017;-87
2023/09/19 06:50:26;;;;;;;4.15;1.77;;;;;;;19.35;81.08;99749.09;6129186;23;20020;-87
2023/09/19 06:52:54;;;;;;;5.78;2.47;;;;;;;19.40;80.24;99757.41;6177608;23;20020;-89
2023/09/19 06:55:27;;;;;;;4.57;2.03;;;;;;;19.42;80.13;99759.94;6153382;23;22551;-87
2023/09/19 06:57:55;;;;;;;6.10;2.13;;;;;;;19.41;79.94;99763.63;6177280;23;20024;-88
2023/09/19 07:00:23;;;;;;;5.57;2.20;;;;;;;19.46;79.56;99769.25;6202273;23;20012;-89
2023/09/19 07:03:03;;;;;;;4.57;1.88;;;;;;;19.40;79.56;99761.97;6201755;23;20021;-88
2023/09/19 07:05:31;;;;;;;3.53;2.20;;;;;;;19.47;79.36;99770.94;6226721;23;20099;-89
2023/09/19 07:08:01;;;;;;;6.63;1.88;;;;;;;19.45;79.03;99768.44;6201564;23;20071;-89
2023/09/19 07:10:28;;;;;;;5.22;2.20;;;;;;;19.45;79.01;99771.13;6202782;23;20020;-88
2023/09/19 07:12:59;;;;;;;6.20;2.08;;;;;;;19.45;78.72;99773.00;6152304;23;20104;-89
2023/09/19 07:15:26;;;;;;;10.43;4.22;;;;;;;19.44;78.53;99772.16;6176132;23;20040;-87
2023/09/19 07:17:54;;;;;;;6.07;2.78;;;;;;;19.44;78.52;99774.03;6177232;23;20022;-88
2023/09/19 07:20:21;;;;;;;14.70;6.97;;;;;;;19.42;78.70;99771.53;6177614;23;20531;-87
2023/09/19 07:22:51;;;;;;;8.48;3.72;;;;;;;19.41;78.70;99780.66;6176318;23;20044;-87
2023/09/19 07:25:18;;;;;;;6.00;2.90;;;;;;;19.40;78.50;99776.28;6177783;23;20020;-88
2023/09/19 07:27:45;;;;;;;9.60;2.67;;;;;;;19.39;78.56;99785.38;6153646;23;20120;-88
2023/09/19 07:30:12;;;;;;;5.43;2.55;;;;;;;19.41;78.71;99795.94;6177552;23;20042;-87
2023/09/19 07:32:40;;;;;;;3.40;2.25;;;;;;;19.40;78.85;99797.81;6152131;23;20027;-87
2023/09/19 07:35:07;;;;;;;5.53;2.20;;;;;;;19.42;79.04;99809.22;6177836;23;20024;-87
2023/09/19 07:37:35;;;;;;;4.68;2.22;;;;;;;19.44;79.54;99809.88;6176775;23;20662;-87
2023/09/19 07:40:09;;;;;;;2.45;2.10;;;;;;;19.46;79.66;99810.53;6176632;23;20393;-87
2023/09/19 07:42:40;;;;;;;4.72;2.50;;;;;;;19.47;79.69;99806.78;6177858;23;20040;-87
2023/09/19 07:45:08;;;;;;;6.00;2.78;;;;;;;19.51;79.45;99810.78;6177856;23;20385;-88
2023/09/19 07:47:36;;;;;;;7.07;2.97;;;;;;;19.53;79.42;99810.56;6177384;23;20020;-88
2023/09/19 07:50:03;;;;;;;7.35;2.67;;;;;;;19.55;78.70;99807.69;6176368;23;20377;-87
2023/09/19 07:52:33;;;;;;;5.53;2.50;;;;;;;19.57;78.81;99798.38;6177930;23;20033;-88
2023/09/19 07:55:01;;;;;;;5.50;2.17;;;;;;;19.63;77.79;99807.53;6177646;23;20795;-87
2023/09/19 07:57:29;;;;;;;3.65;1.60;;;;;;;19.65;76.47;99800.09;6177470;23;20028;-87
2023/09/19 07:59:57;;;;;;;4.03;1.80;;;;;;;19.64;76.23;99812.75;6151573;23;20028;-87
2023/09/19 08:02:24;;;;;;;2.97;1.67;;;;;;;19.66;75.99;99805.25;6177225;23;20079;-87
2023/09/19 08:04:51;;;;;;;3.17;1.60;;;;;;;19.67;75.51;99815.06;6177651;23;20013;-92
2023/09/19 08:07:19;;;;;;;3.17;1.80;;;;;;;19.70;74.96;99828.13;6153848;23;20078;-92
2023/09/19 08:09:48;;;;;;;4.40;1.52;;;;;;;19.73;74.46;99819.66;6177689;23;20373;-92
2023/09/19 08:12:15;;;;;;;6.25;1.80;;;;;;;19.71;74.18;99824.41;6179005;23;21543;-93
2023/09/19 08:14:42;;;;;;;4.07;1.52;;;;;;;19.74;74.01;99828.56;6153735;23;20059;-91
2023/09/19 08:17:09;;;;;;;3.45;1.45;;;;;;;19.79;73.86;99844.16;6152869;23;20457;-90
2023/09/19 08:19:36;;;;;;;2.80;1.23;;;;;;;19.78;72.84;99837.13;6178116;23;20445;-91
2023/09/19 08:22:03;;;;;;;2.67;1.52;;;;;;;19.77;73.13;99836.28;6129193;23;20031;-90
2023/09/19 08:24:30;;;;;;;8.48;2.00;;;;;;;19.84;73.37;99847.09;6153811;23;20021;-91
2023/09/19 08:26:57;;;;;;;6.38;1.60;;;;;;;19.86;73.73;99856.66;6155217;23;20012;-90
2023/09/19 08:29:27;;;;;;;6.35;1.42;;;;;;;19.87;72.76;99855.63;6204998;23;20055;-92
2023/09/19 08:31:56;;;;;;;3.20;1.60;;;;;;;19.89;72.51;99845.47;6155961;23;20440;-89
2023/09/19 08:34:24;;;;;;;1.40;1.15;;;;;;;19.90;71.82;99847.16;6155494;23;20373;-89
2023/09/19 08:36:56;;;;;;;4.13;1.73;;;;;;;19.88;71.03;99848.38;6204084;23;20017;-90
2023/09/19 08:39:23;;;;;;;5.35;1.77;;;;;;;19.90;71.26;99849.03;6131693;23;20057;-91
2023/09/19 08:42:00;;;;;;;4.22;1.70;;;;;;;19.88;70.23;99856.47;6155654;23;20040;-91
2023/09/19 08:44:30;;;;;;;2.47;1.20;;;;;;;19.94;70.78;99852.97;6154535;23;20035;-90
2023/09/19 08:47:10;;;;;;;3.17;1.38;;;;;;;19.88;69.72;99861.84;6155167;23;20456;-90
2023/09/19 08:50:03;;;;;;;3.15;1.60;;;;;;;19.89;69.96;99856.25;6155288;23;20066;-91
2023/09/19 08:52:39;;;;;;;4.15;1.20;;;;;;;19.92;70.26;99871.19;6229216;23;20092;-91
2023/09/19 08:55:11;;;;;;;5.93;1.50;;;;;;;19.98;70.66;99869.59;6178718;23;20022;-89
2023/09/19 08:57:41;;;;;;;4.53;1.60;;;;;;;19.94;70.13;99853.81;6182044;23;20021;-93
2023/09/19 09:00:14;;;;;;;2.20;1.35;;;;;;;19.96;70.15;99867.09;6131293;23;20026;-91
2023/09/19 09:02:43;;;;;;;5.18;1.83;;;;;;;19.99;69.45;99866.69;6157280;23;20040;-90
2023/09/19 09:05:15;;;;;;;4.80;1.45;;;;;;;19.99;69.93;99871.25;6130854;23;20353;-90
2023/09/19 09:07:43;;;;;;;5.20;1.58;;;;;;;20.01;69.83;99871.91;6155811;23;20033;-91
2023/09/19 09:10:10;;;;;;;4.97;1.63;;;;;;;20.00;69.85;99868.38;6154503;23;20337;-92
2023/09/19 09:12:40;;;;;;;4.22;1.98;;;;;;;20.03;70.04;99864.47;6131333;23;20025;-92
2023/09/19 09:15:11;;;;;;;4.43;1.70;;;;;;;20.02;69.98;99860.91;6154889;23;20048;-91
2023/09/19 09:17:38;;;;;;;5.90;1.75;;;;;;;20.00;69.17;99867.53;6131682;23;20024;-92
2023/09/19 09:20:08;;;;;;;2.53;1.45;;;;;;;19.95;69.14;99870.81;6131359;23;20078;-90
2023/09/19 09:22:36;;;;;;;4.00;1.40;;;;;;;19.93;69.30;99875.56;6156509;23;20017;-92
2023/09/19 09:25:06;;;;;;;5.75;1.50;;;;;;;19.89;69.51;99871.59;6130792;23;20079;-91
2023/09/19 09:27:34;;;;;;;4.53;1.63;;;;;;;19.87;69.92;99874.50;6155391;23;20017;-91
2023/09/19 09:30:00;;;;;;;3.67;1.75;;;;;;;19.85;70.07;99870.34;6180558;23;20349;-91
2023/09/19 09:32:33;;;;;;;5.88;1.70;;;;;;;19.90;70.14;99875.97;6181261;23;20021;-92
2023/09/19 09:35:01;;;;;;;2.00;1.25;;;;;;;19.92;70.42;99873.88;6155321;23;20051;-92
2023/09/19 09:37:30;;;;;;;2.90;1.40;;;;;;;19.91;70.31;99864.97;6157368;23;20012;-91
2023/09/19 09:42:41;;;;;;;5.50;1.52;;;;;;;19.95;68.53;99868.97;6179728;23;20339;-93
2023/09/19 09:45:14;;;;;;;2.97;1.20;;;;;;;19.98;68.21;99875.81;6131660;23;20027;-91
2023/09/19 09:47:41;;;;;;;;;;;;;;;19.86;66.75;99866.59;6181059;23;20028;-91
2023/09/19 09:50:17;;;;;;;2.95;1.40;;;;;;;20.04;68.46;99874.19;6154347;23;19947;-93
2023/09/19 09:52:44;;;;;;;4.03;1.40;;;;;;;20.10;68.26;99860.78;6156972;23;20029;-92
2023/09/19 09:55:12;;;;;;;5.82;1.52;;;;;;;20.12;67.76;99868.66;6155557;23;20025;-90
2023/09/19 09:57:41;;;;;;;6.43;1.60;;;;;;;20.14;66.72;99859.34;6154319;23;20083;-90
2023/09/19 10:02:40;;;;;;;4.63;1.90;;;;;;;20.15;66.49;99868.28;6155843;23;20055;-90
2023/09/19 10:07:49;;;;;;;3.67;1.58;;;;;;;20.14;66.92;99878.22;6154860;23;20100;-90
2023/09/19 10:13:15;;;;;;;2.70;1.40;;;;;;;20.13;65.75;99876.56;6155184;23;20381;-91
2023/09/19 10:15:50;;;;;;;3.75;1.40;;;;;;;20.13;65.39;99871.16;6156844;23;20024;-89
2023/09/19 10:18:21;;;;;;;2.22;2.03;;;;;;;20.15;65.13;99871.81;6180826;23;20384;-90
2023/09/19 10:20:49;;;;;;;3.50;1.55;;;;;;;20.18;65.08;99867.88;6178763;23;20028;-90
2023/09/19 10:23:23;;;;;;;3.40;1.27;;;;;;;20.19;63.15;99871.41;6179573;23;20079;-90
2023/09/19 10:25:51;;;;;;;6.03;2.13;;;;;;;20.18;63.83;99870.56;6130372;23;20047;-91
2023/09/19 10:28:23;;;;;;;5.63;1.38;;;;;;;20.20;63.97;99865.81;6155612;23;20470;-91
2023/09/19 10:30:53;;;;;;;4.03;1.50;;;;;;;20.24;63.81;99866.25;6179814;23;20202;-91
2023/09/19 10:33:29;;;;;;;5.07;1.80;;;;;;;20.27;63.54;99861.28;6154669;23;20444;-91
2023/09/19 10:35:59;;;;;;;5.35;1.95;;;;;;;20.33;63.30;99867.78;6178915;23;20024;-90
2023/09/19 10:38:28;;;;;;;2.53;1.50;;;;;;;20.32;63.34;99853.44;6154776;23;20059;-92
2023/09/19 10:41:00;;;;;;;3.28;1.67;;;;;;;20.34;62.90;99851.38;6129018;23;20021;-88
2023/09/19 10:43:32;;;;;;;6.85;1.90;;;;;;;20.36;62.31;99859.28;6130519;23;20020;-89
2023/09/19 10:46:07;;;;;;;3.90;1.88;;;;;;;20.39;62.95;99856.16;6154458;23;20017;-89
2023/09/19 10:48:34;;;;;;;4.68;1.45;;;;;;;20.40;62.38;99849.72;6203780;23;20021;-89
2023/09/19 10:51:31;;;;;;;3.45;1.50;;;;;;;20.41;62.03;99850.59;6155651;23;20021;-92
2023/09/19 10:54:17;;;;;;;5.22;1.50;;;;;;;20.35;61.00;99850.34;6153189;23;20044;-88
2023/09/19 10:56:49;;;;;;;3.20;1.60;;;;;;;20.46;62.26;99861.63;6177287;23;20036;-88
2023/09/19 10:59:18;;;;;;;2.60;1.60;;;;;;;20.47;61.89;99856.00;6178503;23;20032;-88
2023/09/19 11:01:53;;;;;;;4.22;1.50;;;;;;;20.46;61.66;99850.81;6130254;23;20020;-91
2023/09/19 11:04:31;;;;;;;5.72;1.88;;;;;;;20.44;61.40;99859.09;6179041;23;20061;-89
2023/09/19 11:07:14;;;;;;;2.75;1.50;;;;;;;20.37;59.54;99856.34;6177537;23;20116;-89
2023/09/19 11:09:53;;;;;;;3.78;1.80;;;;;;;20.41;61.19;99856.00;6153347;23;20021;-88
2023/09/19 11:12:26;;;;;;;4.13;1.70;;;;;;;20.45;61.60;99843.75;6202597;23;20091;-88
2023/09/19 11:14:53;;;;;;;4.28;1.50;;;;;;;20.48;61.94;99846.03;6201270;23;20384;-88
2023/09/19 11:17:21;;;;;;;3.05;1.75;;;;;;;20.52;62.04;99841.91;6178215;23;20038;-87
2023/09/19 11:22:57;;;;;;;2.08;1.20;;;;;;;20.51;60.72;99841.09;6202225;23;20017;-89
2023/09/19 11:25:34;;;;;;;2.67;1.40;;;;;;;20.57;61.72;99845.72;6202937;23;20033;-89
2023/09/19 11:28:08;;;;;;;3.97;1.20;;;;;;;20.54;59.87;99840.72;6152162;23;20313;-88
2023/09/19 11:30:37;;;;;;;2.67;1.33;;;;;;;20.61;60.33;99840.75;6153472;23;20071;-89
2023/09/19 11:33:23;;;;;;;4.15;1.35;;;;;;;20.47;59.57;99834.41;6176614;23;20345;-88
2023/09/19 11:36:18;;;;;;;3.50;1.40;;;;;;;20.47;59.66;99831.72;6202889;23;20079;-88
2023/09/19 11:38:45;;;;;;;3.30;1.27;;;;;;;20.55;60.59;99836.16;6177569;23;20019;-88
2023/09/19 11:41:21;;;;;;;3.72;1.30;;;;;;;20.47;58.18;99837.13;6176216;23;20318;-88
2023/09/19 11:43:50;;;;;;;2.97;1.30;;;;;;;20.52;59.77;99831.97;6177388;23;20021;-88
2023/09/19 11:46:22;;;;;;;3.25;1.58;;;;;;;20.49;59.12;99836.94;6155589;23;20191;-89
2023/09/19 11:48:49;;;;;;;2.78;1.15;;;;;;;20.53;59.26;99828.25;6151796;23;20079;-89
2023/09/19 11:51:26;;;;;;;4.75;1.50;;;;;;;20.58;59.64;99833.03;6129162;23;20044;-88
2023/09/19 11:53:55;;;;;;;2.22;1.33;;;;;;;20.63;59.58;99817.09;6152699;23;20020;-89
2023/09/19 11:56:26;;;;;;;3.65;1.40;;;;;;;20.67;59.52;99810.25;6129068;23;20024;-88
2023/09/19 11:58:55;;;;;;;1.52;0.98;;;;;;;20.73;59.64;99819.41;6177904;23;20028;-88
2023/09/19 12:01:25;;;;;;;3.03;1.15;;;;;;;20.77;59.29;99817.97;6179015;23;20024;-88
2023/09/19 12:03:57;;;;;;;2.35;1.30;;;;;;;20.79;58.50;99810.53;6154252;23;20017;-87
2023/09/19 12:06:26;;;;;;;2.97;1.10;;;;;;;20.83;58.59;99814.47;6155898;23;20016;-88
2023/09/19 12:08:54;;;;;;;5.00;1.40;;;;;;;20.85;58.64;99823.19;6154901;23;20025;-88
2023/09/19 12:11:23;;;;;;;1.85;1.00;;;;;;;20.85;57.66;99808.88;6205386;23;20044;-90
2023/09/19 12:13:51;;;;;;;2.97;1.95;;;;;;;20.87;58.48;99814.91;6154477;23;20071;-91
2023/09/19 12:16:23;;;;;;;4.40;1.30;;;;;;;20.87;58.32;99815.72;6156118;23;20020;-88
2023/09/19 12:18:50;;;;;;;3.10;1.33;;;;;;;20.92;58.25;99813.25;6204924;23;20044;-89
2023/09/19 12:21:31;;;;;;;1.95;1.27;;;;;;;20.92;57.73;99818.66;6155079;23;20325;-89
2023/09/19 12:24:13;;;;;;;2.03;1.35;;;;;;;20.99;58.53;99811.41;6154897;23;20020;-88
2023/09/19 12:26:42;;;;;;;1.83;1.00;;;;;;;21.02;58.53;99802.06;6155315;23;20044;-89
2023/09/19 12:29:14;;;;;;;6.45;1.48;;;;;;;21.04;58.06;99794.59;6179591;23;20047;-89
2023/09/19 12:31:50;;;;;;;4.22;1.40;;;;;;;21.07;57.14;99807.69;6178770;23;20028;-88
2023/09/19 12:34:27;;;;;;;2.70;1.42;;;;;;;21.05;56.37;99790.03;6180148;23;20021;-89
2023/09/19 12:37:35;;;;;;;2.05;1.30;;;;;;;20.98;55.53;99787.31;6178699;23;20025;-85
2023/09/19 12:40:22;;;;;;;2.65;1.00;;;;;;;21.05;56.02;99790.84;6169980;23;20506;-84
2023/09/19 12:42:49;;;;;;;6.47;1.25;;;;;;;21.11;55.92;99775.69;6178478;23;20714;-84
2023/09/19 12:45:18;;;;;;;3.03;1.45;;;;;;;21.11;55.29;99781.91;6228890;23;20040;-84
2023/09/19 12:48:20;;;;;;;2.80;1.42;;;;;;;21.03;54.13;99780.25;6177495;23;20047;-84
2023/09/19 12:51:12;;;;;;;1.83;1.08;;;;;;;21.05;54.97;99768.44;6178364;23;20091;-85
2023/09/19 12:53:42;;;;;;;2.28;1.20;;;;;;;21.14;55.56;99775.28;6179014;23;20048;-84
2023/09/19 12:56:12;;;;;;;2.25;1.05;;;;;;;21.15;55.54;99772.38;6178314;23;20160;-85
2023/09/19 12:58:56;;;;;;;5.60;1.20;;;;;;;21.13;54.96;99773.63;6204348;23;20016;-84
2023/09/19 13:01:27;;;;;;;2.17;1.23;;;;;;;21.17;54.96;99766.78;6154468;23;20024;-85
2023/09/19 13:04:18;;;;;;;3.55;1.30;;;;;;;21.08;54.88;99774.25;6203590;23;20021;-85
2023/09/19 13:06:49;;;;;;;1.75;1.02;;;;;;;21.12;55.27;99763.88;6203651;23;20028;-84
2023/09/19 13:09:17;;;;;;;4.40;1.92;;;;;;;21.07;54.68;99772.59;6203607;23;20338;-85
2023/09/19 13:11:45;;;;;;;2.88;1.35;;;;;;;21.09;55.31;99773.22;6177611;23;20452;-84
2023/09/19 13:14:17;;;;;;;4.50;1.35;;;;;;;21.08;55.37;99773.41;6152799;23;20105;-84
2023/09/19 13:17:04;;;;;;;2.53;1.30;;;;;;;21.06;55.23;99768.22;6178894;23;20027;-85
2023/09/19 13:19:56;;;;;;;1.85;1.00;;;;;;;21.09;54.84;99770.53;6153716;23;20086;-84
2023/09/19 13:22:36;;;;;;;3.22;1.30;;;;;;;21.12;55.29;99767.41;6202454;23;20020;-84
2023/09/19 13:25:04;;;;;;;1.90;1.00;;;;;;;21.19;55.90;99757.44;6177523;23;20082;-85
2023/09/19 13:27:30;;;;;;;4.10;1.20;;;;;;;21.21;56.04;99749.13;6178938;23;20063;-85
2023/09/19 13:29:58;;;;;;;3.20;1.25;;;;;;;21.21;54.70;99757.22;6177440;23;20461;-86
2023/09/19 13:32:26;;;;;;;2.05;1.13;;;;;;;21.22;54.70;99748.91;6203296;23;20028;-85
2023/09/19 13:34:53;;;;;;;3.22;1.33;;;;;;;21.19;55.42;99738.53;6153560;23;20028;-85
2023/09/19 13:37:20;;;;;;;2.92;1.38;;;;;;;21.21;55.64;99738.31;6178558;23;20028;-84
2023/09/19 13:39:47;;;;;;;3.63;1.02;;;;;;;21.22;55.27;99740.81;6203760;23;20091;-85
2023/09/19 13:42:15;;;;;;;4.68;1.50;;;;;;;21.29;55.75;99738.09;6178739;23;20032;-84
2023/09/19 13:44:43;;;;;;;1.38;1.08;;;;;;;21.31;55.25;99732.50;6203627;23;20038;-84
2023/09/19 13:47:13;;;;;;;1.92;1.20;;;;;;;21.35;55.37;99741.88;6176640;23;20464;-84
2023/09/19 13:49:40;;;;;;;4.28;1.30;;;;;;;21.38;55.61;99723.38;6204022;23;20024;-85
2023/09/19 13:52:07;;;;;;;3.58;1.30;;;;;;;21.39;55.25;99735.00;6202153;23;20024;-85
2023/09/19 13:54:34;;;;;;;1.67;1.00;;;;;;;21.37;54.89;99734.34;6203267;23;20808;-84
2023/09/19 13:57:00;;;;;;;2.95;1.05;;;;;;;21.37;55.16;99737.06;6177380;23;20052;-85
2023/09/19 13:59:28;;;;;;;3.08;1.38;;;;;;;21.37;55.13;99734.34;6203329;23;20033;-85
2023/09/19 14:01:55;;;;;;;2.95;1.20;;;;;;;21.40;55.05;99734.00;6177134;23;20009;-85
2023/09/19 14:04:22;;;;;;;1.55;0.90;;;;;;;21.40;54.59;99732.13;6200737;23;20037;-84
2023/09/19 14:06:49;;;;;;;3.53;1.20;;;;;;;21.39;54.99;99726.91;6226202;23;20020;-86
2023/09/19 14:09:19;;;;;;;2.05;1.27;;;;;;;21.40;54.62;99729.41;6153486;23;20020;-84
2023/09/19 14:11:47;;;;;;;4.45;1.20;;;;;;;21.38;54.42;99718.00;6227834;23;20360;-87
2023/09/19 14:14:15;;;;;;;2.00;1.30;;;;;;;21.39;54.29;99724.22;6129147;23;20100;-85
2023/09/19 14:16:42;;;;;;;3.13;1.52;;;;;;;21.39;54.75;99726.91;6177242;23;20082;-86
2023/09/19 14:19:09;;;;;;;2.45;1.35;;;;;;;21.38;54.52;99728.78;6202997;23;20055;-85
2023/09/19 14:21:39;;;;;;;3.08;1.42;;;;;;;21.34;54.37;99715.88;6177979;23;20090;-85
2023/09/19 14:24:09;;;;;;;4.88;1.45;;;;;;;21.38;54.51;99717.13;6200913;23;20111;-85
2023/09/19 14:26:36;;;;;;;1.80;0.98;;;;;;;21.38;54.42;99720.69;6153455;23;20452;-84
2023/09/19 14:29:03;;;;;;;2.97;1.10;;;;;;;21.41;54.22;99722.13;6152632;23;20021;-86
2023/09/19 14:31:30;;;;;;;4.40;1.23;;;;;;;21.39;54.07;99716.94;6203205;23;20730;-85
2023/09/19 14:33:59;;;;;;;2.17;1.10;;;;;;;21.41;54.50;99706.75;6202022;23;20017;-84
2023/09/19 14:36:25;;;;;;;2.70;1.30;;;;;;;21.41;54.61;99714.84;6178135;23;20017;-85
2023/09/19 14:38:56;;;;;;;2.40;1.30;;;;;;;21.43;54.54;99711.97;6178025;23;20019;-84
2023/09/19 14:41:25;;;;;;;2.47;1.10;;;;;;;21.43;54.36;99711.97;6154439;23;20051;-85
2023/09/19 14:43:52;;;;;;;2.40;1.10;;;;;;;21.44;54.25;99714.44;6176522;23;20047;-84
2023/09/19 14:46:19;;;;;;;2.63;1.30;;;;;;;21.44;54.12;99698.22;6178212;23;20424;-84
2023/09/19 14:48:48;;;;;;;1.88;1.00;;;;;;;;;;6202953;23;20032;-84
2023/09/19 14:51:15;;;;;;;3.13;1.20;;;;;;;21.45;54.26;99708.00;6201958;23;20791;-84